sensor_id;sensor_type;location;lat;lon;timestamp;temperature;humidity
42245;DHT22;27912;51.828;5.688;2022-08-05T00:00:45;19.30;99.90
42245;DHT22;27912;51.828;5.688;2022-08-05T00:03:11;19.30;99.90
42245;DHT22;27912;51.828;5.688;2022-08-05T00:05:36;19.20;99.90
42245;DHT22;27912;51.828;5.688;2022-08-05T00:08:02;19.20;99.90
42245;DHT22;27912;51.828;5.688;2022-08-05T00:10:28;19.20;99.90
42245;DHT22;27912;51.828;5.688;2022-08-05T00:12:53;19.20;99.90
42245;DHT22;27912;51.828;5.688;2022-08-05T00:15:19;19.20;99.90
42245;DHT22;27912;51.828;5.688;2022-08-05T00:17:44;19.20;99.90
42245;DHT22;27912;51.828;5.688;2022-08-05T00:20:10;19.10;99.90
42245;DHT22;27912;51.828;5.688;2022-08-05T00:22:35;19.10;99.90
42245;DHT22;27912;51.828;5.688;2022-08-05T00:25:01;19.00;99.90
42245;DHT22;27912;51.828;5.688;2022-08-05T00:27:27;19.00;99.90
42245;DHT22;27912;51.828;5.688;2022-08-05T00:29:55;19.00;99.90
42245;DHT22;27912;51.828;5.688;2022-08-05T00:32:20;19.00;99.90
42245;DHT22;27912;51.828;5.688;2022-08-05T00:34:46;18.90;99.90
42245;DHT22;27912;51.828;5.688;2022-08-05T00:37:11;18.90;99.90
42245;DHT22;27912;51.828;5.688;2022-08-05T00:39:37;19.00;99.90
42245;DHT22;27912;51.828;5.688;2022-08-05T00:42:02;18.90;99.90
42245;DHT22;27912;51.828;5.688;2022-08-05T00:44:28;18.90;99.90
42245;DHT22;27912;51.828;5.688;2022-08-05T00:46:54;18.90;99.90
42245;DHT22;27912;51.828;5.688;2022-08-05T00:49:19;18.90;99.90
42245;DHT22;27912;51.828;5.688;2022-08-05T00:51:45;18.90;99.90
42245;DHT22;27912;51.828;5.688;2022-08-05T00:54:14;18.90;99.90
42245;DHT22;27912;51.828;5.688;2022-08-05T00:56:39;18.80;99.90
42245;DHT22;27912;51.828;5.688;2022-08-05T00:59:05;18.90;99.90
42245;DHT22;27912;51.828;5.688;2022-08-05T01:01:31;18.80;99.90
42245;DHT22;27912;51.828;5.688;2022-08-05T01:03:57;18.80;99.90
42245;DHT22;27912;51.828;5.688;2022-08-05T01:06:22;18.80;99.90
42245;DHT22;27912;51.828;5.688;2022-08-05T01:08:48;18.80;99.90
42245;DHT22;27912;51.828;5.688;2022-08-05T01:11:23;18.80;99.90
42245;DHT22;27912;51.828;5.688;2022-08-05T01:16:36;18.80;99.90
42245;DHT22;27912;51.828;5.688;2022-08-05T01:19:22;18.80;99.90
42245;DHT22;27912;51.828;5.688;2022-08-05T01:25:15;18.80;99.90
42245;DHT22;27912;51.828;5.688;2022-08-05T01:30:53;18.70;99.90
42245;DHT22;27912;51.828;5.688;2022-08-05T01:33:23;18.70;99.90
42245;DHT22;27912;51.828;5.688;2022-08-05T01:35:51;18.70;99.90
42245;DHT22;27912;51.828;5.688;2022-08-05T01:38:18;18.70;99.90
42245;DHT22;27912;51.828;5.688;2022-08-05T01:40:45;18.70;99.90
42245;DHT22;27912;51.828;5.688;2022-08-05T01:43:11;18.70;99.90
42245;DHT22;27912;51.828;5.688;2022-08-05T01:45:38;18.70;99.90
42245;DHT22;27912;51.828;5.688;2022-08-05T01:48:05;18.70;99.90
42245;DHT22;27912;51.828;5.688;2022-08-05T01:50:39;18.60;99.90
42245;DHT22;27912;51.828;5.688;2022-08-05T01:53:12;18.70;99.90
42245;DHT22;27912;51.828;5.688;2022-08-05T01:55:45;18.60;99.90
42245;DHT22;27912;51.828;5.688;2022-08-05T01:58:15;18.70;99.90
42245;DHT22;27912;51.828;5.688;2022-08-05T02:00:44;18.60;99.90
42245;DHT22;27912;51.828;5.688;2022-08-05T02:03:18;18.70;99.90
42245;DHT22;27912;51.828;5.688;2022-08-05T02:05:45;18.70;99.90
42245;DHT22;27912;51.828;5.688;2022-08-05T02:08:12;18.60;99.90
42245;DHT22;27912;51.828;5.688;2022-08-05T02:10:43;18.60;99.90
42245;DHT22;27912;51.828;5.688;2022-08-05T02:13:27;18.60;99.90
42245;DHT22;27912;51.828;5.688;2022-08-05T02:16:19;18.70;99.90
42245;DHT22;27912;51.828;5.688;2022-08-05T02:19:00;18.70;99.90
42245;DHT22;27912;51.828;5.688;2022-08-05T02:21:34;18.60;99.90
42245;DHT22;27912;51.828;5.688;2022-08-05T02:24:05;18.60;99.90
42245;DHT22;27912;51.828;5.688;2022-08-05T02:26:37;18.60;99.90
42245;DHT22;27912;51.828;5.688;2022-08-05T02:29:05;18.60;99.90
42245;DHT22;27912;51.828;5.688;2022-08-05T02:31:34;18.50;99.90
42245;DHT22;27912;51.828;5.688;2022-08-05T02:34:06;18.50;99.90
42245;DHT22;27912;51.828;5.688;2022-08-05T02:36:33;18.50;99.90
42245;DHT22;27912;51.828;5.688;2022-08-05T02:39:01;18.50;99.90
42245;DHT22;27912;51.828;5.688;2022-08-05T02:41:27;18.50;99.90
42245;DHT22;27912;51.828;5.688;2022-08-05T02:43:55;18.50;99.90
42245;DHT22;27912;51.828;5.688;2022-08-05T02:46:22;18.50;99.90
42245;DHT22;27912;51.828;5.688;2022-08-05T02:48:49;18.50;99.90
42245;DHT22;27912;51.828;5.688;2022-08-05T02:51:16;18.40;99.90
42245;DHT22;27912;51.828;5.688;2022-08-05T02:53:42;18.40;99.90
42245;DHT22;27912;51.828;5.688;2022-08-05T02:56:09;18.40;99.90
42245;DHT22;27912;51.828;5.688;2022-08-05T02:58:39;18.40;99.90
42245;DHT22;27912;51.828;5.688;2022-08-05T03:01:16;18.40;99.90
42245;DHT22;27912;51.828;5.688;2022-08-05T03:03:42;18.40;99.90
42245;DHT22;27912;51.828;5.688;2022-08-05T03:06:10;18.40;99.90
42245;DHT22;27912;51.828;5.688;2022-08-05T03:08:37;18.40;99.90
42245;DHT22;27912;51.828;5.688;2022-08-05T03:11:03;18.40;99.90
42245;DHT22;27912;51.828;5.688;2022-08-05T03:13:29;18.50;99.90
42245;DHT22;27912;51.828;5.688;2022-08-05T03:15:54;18.50;99.90
42245;DHT22;27912;51.828;5.688;2022-08-05T03:18:20;18.50;99.90
42245;DHT22;27912;51.828;5.688;2022-08-05T03:20:46;18.50;99.90
42245;DHT22;27912;51.828;5.688;2022-08-05T03:23:12;18.50;99.90
42245;DHT22;27912;51.828;5.688;2022-08-05T03:25:38;18.50;99.90
42245;DHT22;27912;51.828;5.688;2022-08-05T03:28:05;18.40;99.90
42245;DHT22;27912;51.828;5.688;2022-08-05T03:30:31;18.40;99.90
42245;DHT22;27912;51.828;5.688;2022-08-05T03:33:02;18.40;99.90
42245;DHT22;27912;51.828;5.688;2022-08-05T03:35:28;18.40;99.90
42245;DHT22;27912;51.828;5.688;2022-08-05T03:37:57;18.40;99.90
42245;DHT22;27912;51.828;5.688;2022-08-05T03:40:24;18.40;99.90
42245;DHT22;27912;51.828;5.688;2022-08-05T03:42:50;18.40;99.90
42245;DHT22;27912;51.828;5.688;2022-08-05T03:45:16;18.40;99.90
42245;DHT22;27912;51.828;5.688;2022-08-05T03:47:42;18.40;99.90
42245;DHT22;27912;51.828;5.688;2022-08-05T03:50:08;18.40;99.90
42245;DHT22;27912;51.828;5.688;2022-08-05T03:52:39;18.40;99.90
42245;DHT22;27912;51.828;5.688;2022-08-05T03:55:12;18.40;99.90
42245;DHT22;27912;51.828;5.688;2022-08-05T03:57:39;18.40;99.90
42245;DHT22;27912;51.828;5.688;2022-08-05T04:00:13;18.40;99.90
42245;DHT22;27912;51.828;5.688;2022-08-05T04:02:45;18.40;99.90
42245;DHT22;27912;51.828;5.688;2022-08-05T04:05:13;18.40;99.90
42245;DHT22;27912;51.828;5.688;2022-08-05T04:07:40;18.40;99.90
42245;DHT22;27912;51.828;5.688;2022-08-05T04:10:06;18.40;99.90
42245;DHT22;27912;51.828;5.688;2022-08-05T04:12:32;18.30;99.90
42245;DHT22;27912;51.828;5.688;2022-08-05T04:14:58;18.30;99.90
42245;DHT22;27912;51.828;5.688;2022-08-05T04:17:24;18.30;99.90
42245;DHT22;27912;51.828;5.688;2022-08-05T04:19:50;18.30;99.90
42245;DHT22;27912;51.828;5.688;2022-08-05T04:22:15;18.20;99.90
42245;DHT22;27912;51.828;5.688;2022-08-05T04:24:43;18.20;99.90
42245;DHT22;27912;51.828;5.688;2022-08-05T04:27:09;18.10;99.90
42245;DHT22;27912;51.828;5.688;2022-08-05T04:29:34;18.10;99.90
42245;DHT22;27912;51.828;5.688;2022-08-05T04:32:00;18.10;99.90
42245;DHT22;27912;51.828;5.688;2022-08-05T04:34:26;18.00;99.90
42245;DHT22;27912;51.828;5.688;2022-08-05T04:36:51;18.00;99.90
42245;DHT22;27912;51.828;5.688;2022-08-05T04:39:17;18.00;99.90
42245;DHT22;27912;51.828;5.688;2022-08-05T04:41:43;18.00;99.90
42245;DHT22;27912;51.828;5.688;2022-08-05T04:44:08;18.00;99.90
42245;DHT22;27912;51.828;5.688;2022-08-05T04:46:34;18.00;99.90
42245;DHT22;27912;51.828;5.688;2022-08-05T04:48:59;18.00;99.90
42245;DHT22;27912;51.828;5.688;2022-08-05T04:51:25;18.00;99.90
42245;DHT22;27912;51.828;5.688;2022-08-05T04:53:50;18.10;99.90
42245;DHT22;27912;51.828;5.688;2022-08-05T04:56:16;18.10;99.90
42245;DHT22;27912;51.828;5.688;2022-08-05T04:58:41;18.10;99.90
42245;DHT22;27912;51.828;5.688;2022-08-05T05:01:07;18.10;99.90
42245;DHT22;27912;51.828;5.688;2022-08-05T05:03:33;18.20;99.90
42245;DHT22;27912;51.828;5.688;2022-08-05T05:05:58;18.20;99.90
42245;DHT22;27912;51.828;5.688;2022-08-05T05:08:24;18.20;99.90
42245;DHT22;27912;51.828;5.688;2022-08-05T05:10:49;18.20;99.90
42245;DHT22;27912;51.828;5.688;2022-08-05T05:13:16;18.20;99.90
42245;DHT22;27912;51.828;5.688;2022-08-05T05:15:43;18.20;99.90
42245;DHT22;27912;51.828;5.688;2022-08-05T05:18:14;18.20;99.90
42245;DHT22;27912;51.828;5.688;2022-08-05T05:20:44;18.20;99.90
42245;DHT22;27912;51.828;5.688;2022-08-05T05:23:10;18.20;99.90
42245;DHT22;27912;51.828;5.688;2022-08-05T05:25:39;18.30;99.90
42245;DHT22;27912;51.828;5.688;2022-08-05T05:28:05;18.20;99.90
42245;DHT22;27912;51.828;5.688;2022-08-05T05:30:30;18.20;99.90
42245;DHT22;27912;51.828;5.688;2022-08-05T05:32:56;18.20;99.90
42245;DHT22;27912;51.828;5.688;2022-08-05T05:35:22;18.30;99.90
42245;DHT22;27912;51.828;5.688;2022-08-05T05:37:50;18.30;99.90
42245;DHT22;27912;51.828;5.688;2022-08-05T05:40:18;18.30;99.90
42245;DHT22;27912;51.828;5.688;2022-08-05T05:42:44;18.30;99.90
42245;DHT22;27912;51.828;5.688;2022-08-05T05:45:10;18.30;99.90
42245;DHT22;27912;51.828;5.688;2022-08-05T05:47:36;18.40;99.90
42245;DHT22;27912;51.828;5.688;2022-08-05T05:50:02;18.30;99.90
42245;DHT22;27912;51.828;5.688;2022-08-05T05:52:28;18.30;99.90
42245;DHT22;27912;51.828;5.688;2022-08-05T05:54:53;18.30;99.90
42245;DHT22;27912;51.828;5.688;2022-08-05T05:57:19;18.30;99.90
42245;DHT22;27912;51.828;5.688;2022-08-05T05:59:45;18.30;99.90
42245;DHT22;27912;51.828;5.688;2022-08-05T06:02:10;18.30;99.90
42245;DHT22;27912;51.828;5.688;2022-08-05T06:04:36;18.40;99.90
42245;DHT22;27912;51.828;5.688;2022-08-05T06:07:01;18.40;99.90
42245;DHT22;27912;51.828;5.688;2022-08-05T06:09:27;18.50;99.90
42245;DHT22;27912;51.828;5.688;2022-08-05T06:11:53;18.50;99.90
42245;DHT22;27912;51.828;5.688;2022-08-05T06:14:18;18.50;99.90
42245;DHT22;27912;51.828;5.688;2022-08-05T06:16:44;18.60;99.90
42245;DHT22;27912;51.828;5.688;2022-08-05T06:19:09;18.60;99.90
42245;DHT22;27912;51.828;5.688;2022-08-05T06:21:36;18.70;99.90
42245;DHT22;27912;51.828;5.688;2022-08-05T06:24:01;18.80;99.90
42245;DHT22;27912;51.828;5.688;2022-08-05T06:26:27;18.80;99.90
42245;DHT22;27912;51.828;5.688;2022-08-05T06:28:52;18.80;99.90
42245;DHT22;27912;51.828;5.688;2022-08-05T06:31:18;18.90;99.90
42245;DHT22;27912;51.828;5.688;2022-08-05T06:33:44;18.80;99.90
42245;DHT22;27912;51.828;5.688;2022-08-05T06:36:09;18.80;99.90
42245;DHT22;27912;51.828;5.688;2022-08-05T06:38:35;18.80;99.90
42245;DHT22;27912;51.828;5.688;2022-08-05T06:41:00;18.80;99.90
42245;DHT22;27912;51.828;5.688;2022-08-05T06:43:26;18.80;99.90
42245;DHT22;27912;51.828;5.688;2022-08-05T06:45:51;18.90;99.90
42245;DHT22;27912;51.828;5.688;2022-08-05T06:48:17;18.90;99.90
42245;DHT22;27912;51.828;5.688;2022-08-05T06:50:42;19.00;99.90
42245;DHT22;27912;51.828;5.688;2022-08-05T06:53:08;19.00;99.90
42245;DHT22;27912;51.828;5.688;2022-08-05T06:55:33;19.10;99.90
42245;DHT22;27912;51.828;5.688;2022-08-05T06:57:59;19.20;99.90
42245;DHT22;27912;51.828;5.688;2022-08-05T07:00:24;19.20;99.90
42245;DHT22;27912;51.828;5.688;2022-08-05T07:02:50;19.40;99.90
42245;DHT22;27912;51.828;5.688;2022-08-05T07:05:16;19.40;99.90
42245;DHT22;27912;51.828;5.688;2022-08-05T07:07:41;19.50;99.90
42245;DHT22;27912;51.828;5.688;2022-08-05T07:10:09;19.50;99.90
42245;DHT22;27912;51.828;5.688;2022-08-05T07:12:35;19.60;99.90
42245;DHT22;27912;51.828;5.688;2022-08-05T07:15:20;19.60;99.90
42245;DHT22;27912;51.828;5.688;2022-08-05T07:18:04;19.80;99.90
42245;DHT22;27912;51.828;5.688;2022-08-05T07:20:29;19.90;99.90
42245;DHT22;27912;51.828;5.688;2022-08-05T07:22:55;19.90;99.90
42245;DHT22;27912;51.828;5.688;2022-08-05T07:25:21;19.90;99.90
42245;DHT22;27912;51.828;5.688;2022-08-05T07:27:48;20.00;99.90
42245;DHT22;27912;51.828;5.688;2022-08-05T07:30:14;20.00;99.90
42245;DHT22;27912;51.828;5.688;2022-08-05T07:32:39;20.10;99.90
42245;DHT22;27912;51.828;5.688;2022-08-05T07:35:09;20.20;99.90
42245;DHT22;27912;51.828;5.688;2022-08-05T07:37:35;20.30;99.90
42245;DHT22;27912;51.828;5.688;2022-08-05T07:40:00;20.40;99.90
42245;DHT22;27912;51.828;5.688;2022-08-05T07:42:26;20.40;99.90
42245;DHT22;27912;51.828;5.688;2022-08-05T07:44:52;20.60;99.90
42245;DHT22;27912;51.828;5.688;2022-08-05T07:47:17;20.60;99.90
42245;DHT22;27912;51.828;5.688;2022-08-05T07:49:43;20.60;99.90
42245;DHT22;27912;51.828;5.688;2022-08-05T07:52:08;20.70;99.90
42245;DHT22;27912;51.828;5.688;2022-08-05T07:54:34;20.80;99.90
42245;DHT22;27912;51.828;5.688;2022-08-05T07:57:01;20.80;99.90
42245;DHT22;27912;51.828;5.688;2022-08-05T07:59:27;20.90;99.90
42245;DHT22;27912;51.828;5.688;2022-08-05T08:01:52;20.90;99.90
42245;DHT22;27912;51.828;5.688;2022-08-05T08:04:18;21.10;99.90
42245;DHT22;27912;51.828;5.688;2022-08-05T08:06:43;21.10;99.90
42245;DHT22;27912;51.828;5.688;2022-08-05T08:09:09;21.20;99.90
42245;DHT22;27912;51.828;5.688;2022-08-05T08:11:35;21.20;99.90
42245;DHT22;27912;51.828;5.688;2022-08-05T08:14:01;21.20;99.90
42245;DHT22;27912;51.828;5.688;2022-08-05T08:16:27;21.30;99.90
42245;DHT22;27912;51.828;5.688;2022-08-05T08:18:52;21.20;99.90
42245;DHT22;27912;51.828;5.688;2022-08-05T08:21:18;21.30;99.90
42245;DHT22;27912;51.828;5.688;2022-08-05T08:23:43;21.30;99.90
42245;DHT22;27912;51.828;5.688;2022-08-05T08:26:09;21.20;99.90
42245;DHT22;27912;51.828;5.688;2022-08-05T08:28:34;21.30;99.90
42245;DHT22;27912;51.828;5.688;2022-08-05T08:31:00;21.40;99.90
42245;DHT22;27912;51.828;5.688;2022-08-05T08:33:25;21.60;99.90
42245;DHT22;27912;51.828;5.688;2022-08-05T08:35:51;21.90;99.90
42245;DHT22;27912;51.828;5.688;2022-08-05T08:38:16;22.10;99.90
42245;DHT22;27912;51.828;5.688;2022-08-05T08:40:42;22.30;99.90
42245;DHT22;27912;51.828;5.688;2022-08-05T08:43:11;22.30;99.90
42245;DHT22;27912;51.828;5.688;2022-08-05T08:45:37;22.30;99.90
42245;DHT22;27912;51.828;5.688;2022-08-05T08:48:05;22.20;99.90
42245;DHT22;27912;51.828;5.688;2022-08-05T08:50:31;22.10;99.90
42245;DHT22;27912;51.828;5.688;2022-08-05T08:53:03;22.00;99.90
42245;DHT22;27912;51.828;5.688;2022-08-05T08:55:30;21.80;99.90
42245;DHT22;27912;51.828;5.688;2022-08-05T08:57:57;21.70;99.90
42245;DHT22;27912;51.828;5.688;2022-08-05T09:00:23;21.50;99.90
42245;DHT22;27912;51.828;5.688;2022-08-05T09:02:50;21.50;99.90
42245;DHT22;27912;51.828;5.688;2022-08-05T09:05:16;21.50;99.90
42245;DHT22;27912;51.828;5.688;2022-08-05T09:07:42;21.60;99.90
42245;DHT22;27912;51.828;5.688;2022-08-05T09:10:08;21.80;99.90
42245;DHT22;27912;51.828;5.688;2022-08-05T09:12:34;22.00;99.90
42245;DHT22;27912;51.828;5.688;2022-08-05T09:15:01;22.10;99.90
42245;DHT22;27912;51.828;5.688;2022-08-05T09:17:27;22.30;99.90
42245;DHT22;27912;51.828;5.688;2022-08-05T09:19:54;22.40;99.70
42245;DHT22;27912;51.828;5.688;2022-08-05T09:22:19;22.50;99.40
42245;DHT22;27912;51.828;5.688;2022-08-05T09:24:57;22.50;99.10
42245;DHT22;27912;51.828;5.688;2022-08-05T09:27:31;22.50;98.60
42245;DHT22;27912;51.828;5.688;2022-08-05T09:29:58;22.50;97.80
42245;DHT22;27912;51.828;5.688;2022-08-05T09:32:33;22.60;97.50
42245;DHT22;27912;51.828;5.688;2022-08-05T09:35:14;22.60;96.80
42245;DHT22;27912;51.828;5.688;2022-08-05T09:37:51;22.70;95.70
42245;DHT22;27912;51.828;5.688;2022-08-05T09:40:32;22.50;95.30
42245;DHT22;27912;51.828;5.688;2022-08-05T09:42:59;22.50;95.30
42245;DHT22;27912;51.828;5.688;2022-08-05T09:45:39;22.50;94.90
42245;DHT22;27912;51.828;5.688;2022-08-05T09:48:28;22.70;94.20
42245;DHT22;27912;51.828;5.688;2022-08-05T09:50:56;22.70;92.60
42245;DHT22;27912;51.828;5.688;2022-08-05T09:53:23;22.70;92.60
42245;DHT22;27912;51.828;5.688;2022-08-05T09:55:54;22.80;92.40
42245;DHT22;27912;51.828;5.688;2022-08-05T09:58:21;22.90;91.90
42245;DHT22;27912;51.828;5.688;2022-08-05T10:01:01;23.00;91.80
42245;DHT22;27912;51.828;5.688;2022-08-05T10:03:27;23.20;90.90
42245;DHT22;27912;51.828;5.688;2022-08-05T10:06:05;23.20;90.00
42245;DHT22;27912;51.828;5.688;2022-08-05T10:08:32;23.40;88.60
42245;DHT22;27912;51.828;5.688;2022-08-05T10:10:58;23.50;87.00
42245;DHT22;27912;51.828;5.688;2022-08-05T10:13:35;23.70;84.50
42245;DHT22;27912;51.828;5.688;2022-08-05T10:16:03;23.80;83.30
42245;DHT22;27912;51.828;5.688;2022-08-05T10:18:29;24.00;81.60
42245;DHT22;27912;51.828;5.688;2022-08-05T10:21:05;23.90;81.30
42245;DHT22;27912;51.828;5.688;2022-08-05T10:26:01;23.90;81.00
42245;DHT22;27912;51.828;5.688;2022-08-05T10:28:27;24.00;79.40
42245;DHT22;27912;51.828;5.688;2022-08-05T10:30:54;24.00;77.70
42245;DHT22;27912;51.828;5.688;2022-08-05T10:33:21;24.10;76.60
42245;DHT22;27912;51.828;5.688;2022-08-05T10:35:51;24.10;75.30
42245;DHT22;27912;51.828;5.688;2022-08-05T10:38:19;24.10;75.10
42245;DHT22;27912;51.828;5.688;2022-08-05T10:46:11;24.30;71.00
42245;DHT22;27912;51.828;5.688;2022-08-05T10:48:48;24.30;70.60
42245;DHT22;27912;51.828;5.688;2022-08-05T10:51:17;24.20;69.90
42245;DHT22;27912;51.828;5.688;2022-08-05T10:53:44;24.10;69.40
42245;DHT22;27912;51.828;5.688;2022-08-05T11:01:17;24.10;69.70
42245;DHT22;27912;51.828;5.688;2022-08-05T11:03:59;24.20;69.90
42245;DHT22;27912;51.828;5.688;2022-08-05T11:06:25;24.60;69.30
42245;DHT22;27912;51.828;5.688;2022-08-05T11:11:39;25.00;68.40
42245;DHT22;27912;51.828;5.688;2022-08-05T11:14:06;25.00;67.70
42245;DHT22;27912;51.828;5.688;2022-08-05T11:16:32;24.90;67.80
42245;DHT22;27912;51.828;5.688;2022-08-05T11:19:22;24.80;67.60
42245;DHT22;27912;51.828;5.688;2022-08-05T11:21:48;24.80;67.00
42245;DHT22;27912;51.828;5.688;2022-08-05T11:24:14;24.60;65.30
42245;DHT22;27912;51.828;5.688;2022-08-05T11:26:39;24.60;64.70
42245;DHT22;27912;51.828;5.688;2022-08-05T11:29:05;24.50;63.70
42245;DHT22;27912;51.828;5.688;2022-08-05T11:31:31;24.60;62.60
42245;DHT22;27912;51.828;5.688;2022-08-05T11:33:58;24.60;62.00
42245;DHT22;27912;51.828;5.688;2022-08-05T11:36:45;24.70;62.30
42245;DHT22;27912;51.828;5.688;2022-08-05T11:41:57;24.70;60.80
42245;DHT22;27912;51.828;5.688;2022-08-05T11:44:24;24.60;60.50
42245;DHT22;27912;51.828;5.688;2022-08-05T11:46:59;24.50;60.60
42245;DHT22;27912;51.828;5.688;2022-08-05T11:49:25;24.50;60.50
42245;DHT22;27912;51.828;5.688;2022-08-05T11:51:51;24.30;61.40
42245;DHT22;27912;51.828;5.688;2022-08-05T11:56:52;24.30;61.80
42245;DHT22;27912;51.828;5.688;2022-08-05T11:59:20;24.40;62.00
42245;DHT22;27912;51.828;5.688;2022-08-05T12:04:19;24.60;61.70
42245;DHT22;27912;51.828;5.688;2022-08-05T12:06:45;24.70;61.70
42245;DHT22;27912;51.828;5.688;2022-08-05T12:09:10;24.90;61.80
42245;DHT22;27912;51.828;5.688;2022-08-05T12:11:36;25.20;61.50
42245;DHT22;27912;51.828;5.688;2022-08-05T12:14:03;25.30;61.00
42245;DHT22;27912;51.828;5.688;2022-08-05T12:16:34;25.20;60.60
42245;DHT22;27912;51.828;5.688;2022-08-05T12:19:01;25.00;61.30
42245;DHT22;27912;51.828;5.688;2022-08-05T12:21:29;24.80;61.10
42245;DHT22;27912;51.828;5.688;2022-08-05T12:24:00;24.60;61.80
42245;DHT22;27912;51.828;5.688;2022-08-05T12:26:52;24.40;60.70
42245;DHT22;27912;51.828;5.688;2022-08-05T12:29:20;24.20;59.70
42245;DHT22;27912;51.828;5.688;2022-08-05T12:31:55;23.90;58.40
42245;DHT22;27912;51.828;5.688;2022-08-05T12:34:23;23.80;59.20
42245;DHT22;27912;51.828;5.688;2022-08-05T12:36:53;23.70;58.60
42245;DHT22;27912;51.828;5.688;2022-08-05T12:39:20;23.70;59.00
42245;DHT22;27912;51.828;5.688;2022-08-05T12:41:47;23.90;57.60
42245;DHT22;27912;51.828;5.688;2022-08-05T12:44:14;24.00;57.40
42245;DHT22;27912;51.828;5.688;2022-08-05T12:46:41;24.00;56.30
42245;DHT22;27912;51.828;5.688;2022-08-05T12:51:55;24.20;56.00
42245;DHT22;27912;51.828;5.688;2022-08-05T12:54:23;24.30;56.20
42245;DHT22;27912;51.828;5.688;2022-08-05T12:56:50;24.30;55.90
42245;DHT22;27912;51.828;5.688;2022-08-05T12:59:21;24.30;56.10
42245;DHT22;27912;51.828;5.688;2022-08-05T13:01:56;24.20;56.30
42245;DHT22;27912;51.828;5.688;2022-08-05T13:04:29;24.30;55.90
42245;DHT22;27912;51.828;5.688;2022-08-05T13:06:56;24.20;55.30
42245;DHT22;27912;51.828;5.688;2022-08-05T13:09:23;24.00;55.40
42245;DHT22;27912;51.828;5.688;2022-08-05T13:11:49;23.90;55.20
42245;DHT22;27912;51.828;5.688;2022-08-05T13:14:17;23.70;55.60
42245;DHT22;27912;51.828;5.688;2022-08-05T13:16:55;23.80;55.70
42245;DHT22;27912;51.828;5.688;2022-08-05T13:19:22;24.00;55.80
42245;DHT22;27912;51.828;5.688;2022-08-05T13:21:49;24.20;55.70
42245;DHT22;27912;51.828;5.688;2022-08-05T13:24:15;24.30;55.30
42245;DHT22;27912;51.828;5.688;2022-08-05T13:26:42;24.30;55.60
42245;DHT22;27912;51.828;5.688;2022-08-05T13:29:08;24.30;55.50
42245;DHT22;27912;51.828;5.688;2022-08-05T13:31:34;24.30;55.30
42245;DHT22;27912;51.828;5.688;2022-08-05T13:33:59;24.50;55.20
42245;DHT22;27912;51.828;5.688;2022-08-05T13:36:25;24.60;55.10
42245;DHT22;27912;51.828;5.688;2022-08-05T13:38:51;24.70;55.10
42245;DHT22;27912;51.828;5.688;2022-08-05T13:41:16;24.80;54.80
42245;DHT22;27912;51.828;5.688;2022-08-05T13:43:41;24.70;55.10
42245;DHT22;27912;51.828;5.688;2022-08-05T13:46:09;24.60;55.60
42245;DHT22;27912;51.828;5.688;2022-08-05T13:48:36;24.50;55.30
42245;DHT22;27912;51.828;5.688;2022-08-05T13:51:06;24.60;54.90
42245;DHT22;27912;51.828;5.688;2022-08-05T13:53:32;24.50;54.90
42245;DHT22;27912;51.828;5.688;2022-08-05T13:55:58;24.50;54.80
42245;DHT22;27912;51.828;5.688;2022-08-05T13:58:24;24.60;55.10
42245;DHT22;27912;51.828;5.688;2022-08-05T14:00:49;24.70;54.60
42245;DHT22;27912;51.828;5.688;2022-08-05T14:03:15;24.60;54.30
42245;DHT22;27912;51.828;5.688;2022-08-05T14:05:40;24.70;53.90
42245;DHT22;27912;51.828;5.688;2022-08-05T14:08:06;24.80;53.80
42245;DHT22;27912;51.828;5.688;2022-08-05T14:10:32;25.00;53.70
42245;DHT22;27912;51.828;5.688;2022-08-05T14:12:59;24.90;53.60
42245;DHT22;27912;51.828;5.688;2022-08-05T14:15:25;24.70;54.10
42245;DHT22;27912;51.828;5.688;2022-08-05T14:17:51;24.50;54.50
42245;DHT22;27912;51.828;5.688;2022-08-05T14:20:16;24.40;55.00
42245;DHT22;27912;51.828;5.688;2022-08-05T14:22:42;24.30;55.50
42245;DHT22;27912;51.828;5.688;2022-08-05T14:25:08;24.30;56.20
42245;DHT22;27912;51.828;5.688;2022-08-05T14:27:34;24.60;55.90
42245;DHT22;27912;51.828;5.688;2022-08-05T14:30:00;24.60;55.90
42245;DHT22;27912;51.828;5.688;2022-08-05T14:32:26;24.60;55.80
42245;DHT22;27912;51.828;5.688;2022-08-05T14:34:51;24.60;55.50
42245;DHT22;27912;51.828;5.688;2022-08-05T14:37:17;24.60;56.30
42245;DHT22;27912;51.828;5.688;2022-08-05T14:39:42;24.50;56.10
42245;DHT22;27912;51.828;5.688;2022-08-05T14:42:08;24.30;56.80
42245;DHT22;27912;51.828;5.688;2022-08-05T14:44:34;24.50;56.40
42245;DHT22;27912;51.828;5.688;2022-08-05T14:47:00;24.60;55.40
42245;DHT22;27912;51.828;5.688;2022-08-05T14:49:26;24.70;55.10
42245;DHT22;27912;51.828;5.688;2022-08-05T14:51:51;24.70;55.00
42245;DHT22;27912;51.828;5.688;2022-08-05T14:54:17;24.60;55.70
42245;DHT22;27912;51.828;5.688;2022-08-05T14:56:44;24.70;56.40
42245;DHT22;27912;51.828;5.688;2022-08-05T14:59:09;24.60;56.80
42245;DHT22;27912;51.828;5.688;2022-08-05T15:01:35;24.50;57.40
42245;DHT22;27912;51.828;5.688;2022-08-05T15:04:07;24.50;57.90
42245;DHT22;27912;51.828;5.688;2022-08-05T15:06:35;24.50;58.20
42245;DHT22;27912;51.828;5.688;2022-08-05T15:09:01;24.70;57.80
42245;DHT22;27912;51.828;5.688;2022-08-05T15:11:27;24.80;57.80
42245;DHT22;27912;51.828;5.688;2022-08-05T15:13:52;24.90;57.60
42245;DHT22;27912;51.828;5.688;2022-08-05T15:16:18;25.00;57.20
42245;DHT22;27912;51.828;5.688;2022-08-05T15:18:43;25.00;57.00
42245;DHT22;27912;51.828;5.688;2022-08-05T15:21:09;25.10;56.50
42245;DHT22;27912;51.828;5.688;2022-08-05T15:23:34;25.30;55.60
42245;DHT22;27912;51.828;5.688;2022-08-05T15:26:00;25.30;54.60
42245;DHT22;27912;51.828;5.688;2022-08-05T15:28:25;25.20;53.40
42245;DHT22;27912;51.828;5.688;2022-08-05T15:30:51;25.00;52.60
42245;DHT22;27912;51.828;5.688;2022-08-05T15:33:16;24.90;53.10
42245;DHT22;27912;51.828;5.688;2022-08-05T15:35:42;24.90;53.10
42245;DHT22;27912;51.828;5.688;2022-08-05T15:38:07;24.70;53.10
42245;DHT22;27912;51.828;5.688;2022-08-05T15:40:33;24.50;54.10
42245;DHT22;27912;51.828;5.688;2022-08-05T15:42:58;24.60;54.30
42245;DHT22;27912;51.828;5.688;2022-08-05T15:45:24;24.70;54.10
42245;DHT22;27912;51.828;5.688;2022-08-05T15:47:50;24.60;54.30
42245;DHT22;27912;51.828;5.688;2022-08-05T15:50:15;24.40;54.70
42245;DHT22;27912;51.828;5.688;2022-08-05T15:52:41;24.40;55.20
42245;DHT22;27912;51.828;5.688;2022-08-05T15:55:09;24.90;55.00
42245;DHT22;27912;51.828;5.688;2022-08-05T15:57:35;25.60;53.60
42245;DHT22;27912;51.828;5.688;2022-08-05T16:00:04;26.30;52.80
42245;DHT22;27912;51.828;5.688;2022-08-05T16:02:33;26.80;52.50
42245;DHT22;27912;51.828;5.688;2022-08-05T16:04:58;27.30;51.50
42245;DHT22;27912;51.828;5.688;2022-08-05T16:07:26;27.40;51.30